Time;durP1;ratioP1;P1;durP2;ratioP2;P2;SDS_P1;SDS_P2;PMS_P1;PMS_P2;Temp;Humidity;BMP_temperature;BMP_pressure;BME280_temperature;BME280_humidity;BME280_pressure;Samples;Min_cycle;Max_cycle;Signal;HPM_P1;HPM_P2
2021/08/11 00:02:16;;;;;;;11.30;6.53;;;17.20;99.90;;;;;;5046629;28;20443;-83
2021/08/11 00:04:41;;;;;;;15.20;6.07;;;17.20;99.90;;;;;;5052397;28;20164;-81
2021/08/11 00:07:07;;;;;;;10.10;6.20;;;17.20;99.90;;;;;;5052197;28;20161;-81
2021/08/11 00:09:32;;;;;;;9.97;5.63;;;17.30;99.90;;;;;;5052302;28;20303;-82
2021/08/11 00:11:58;;;;;;;9.27;5.50;;;17.20;99.90;;;;;;5050946;28;20188;-83
2021/08/11 00:14:25;;;;;;;5.27;4.73;;;17.10;99.90;;;;;;5047811;28;20165;-83
2021/08/11 00:16:50;;;;;;;6.83;6.10;;;17.00;99.90;;;;;;5047206;28;20254;-83
2021/08/11 00:19:16;;;;;;;8.80;5.70;;;16.90;99.90;;;;;;5047471;28;20440;-83
2021/08/11 00:21:42;;;;;;;9.23;6.20;;;17.00;99.90;;;;;;5046866;28;20548;-82
2021/08/11 00:24:07;;;;;;;6.43;5.20;;;16.90;99.90;;;;;;5046699;28;20169;-83
2021/08/11 00:26:33;;;;;;;8.73;6.70;;;16.70;99.90;;;;;;5029467;28;20602;-83
2021/08/11 00:28:58;;;;;;;19.63;8.10;;;16.90;99.90;;;;;;5046585;28;20164;-83
2021/08/11 00:31:24;;;;;;;6.40;5.37;;;16.80;99.90;;;;;;5046782;28;20172;-83
2021/08/11 00:33:50;;;;;;;7.10;4.73;;;16.70;99.90;;;;;;5046630;28;20165;-83
2021/08/11 00:36:15;;;;;;;7.50;6.20;;;16.60;99.90;;;;;;5046264;28;20550;-83
2021/08/11 00:38:42;;;;;;;6.10;5.47;;;16.60;99.90;;;;;;5046480;28;20204;-83
2021/08/11 00:41:07;;;;;;;6.60;4.37;;;16.70;99.90;;;;;;5029761;28;20180;-82
2021/08/11 00:43:33;;;;;;;7.30;5.37;;;16.50;99.90;;;;;;5046675;28;20438;-82
2021/08/11 00:45:59;;;;;;;6.73;5.00;;;16.70;99.90;;;;;;5047179;28;20165;-83
2021/08/11 00:48:26;;;;;;;9.97;5.40;;;16.70;99.90;;;;;;5029407;28;20176;-83
2021/08/11 00:50:52;;;;;;;10.23;5.30;;;16.70;99.90;;;;;;5046839;28;20226;-83
2021/08/11 00:53:22;;;;;;;8.27;5.70;;;16.60;99.90;;;;;;5051699;28;20403;-80
2021/08/11 00:55:50;;;;;;;6.57;5.10;;;16.50;99.90;;;;;;5053676;28;20157;-80
2021/08/11 00:58:19;;;;;;;6.27;4.10;;;16.60;99.90;;;;;;5048462;28;20472;-80
2021/08/11 01:00:47;;;;;;;6.67;5.23;;;16.50;99.90;;;;;;5051620;28;20395;-83
2021/08/11 01:03:17;;;;;;;5.43;4.30;;;16.50;99.90;;;;;;5047867;28;20395;-83
2021/08/11 01:05:44;;;;;;;5.63;5.03;;;16.50;99.90;;;;;;5029648;28;20459;-83
2021/08/11 01:08:11;;;;;;;6.73;4.73;;;16.30;99.90;;;;;;5029913;28;20420;-83
2021/08/11 01:10:38;;;;;;;6.97;5.10;;;16.20;99.90;;;;;;5051009;28;20404;-80
2021/08/11 01:13:04;;;;;;;7.00;4.73;;;16.30;99.90;;;;;;5051197;28;20391;-80
2021/08/11 01:15:29;;;;;;;8.70;5.70;;;16.40;99.90;;;;;;5053760;28;20403;-80
2021/08/11 01:17:55;;;;;;;6.93;5.20;;;16.40;99.90;;;;;;5055095;28;20222;-79
2021/08/11 01:20:20;;;;;;;10.50;5.80;;;16.30;99.90;;;;;;5037502;28;20200;-79
2021/08/11 01:22:51;;;;;;;7.00;5.27;;;16.20;99.90;;;;;;5053821;28;20243;-79
2021/08/11 01:25:39;;;;;;;5.77;4.20;;;16.20;99.90;;;;;;5052638;28;20181;-83
2021/08/11 01:28:34;;;;;;;6.90;4.80;;;16.30;99.90;;;;;;5031319;28;20403;-83
2021/08/11 01:31:15;;;;;;;9.37;5.50;;;16.10;99.90;;;;;;5048247;28;20396;-83
2021/08/11 01:34:15;;;;;;;12.40;5.10;;;16.10;99.90;;;;;;5049216;28;20396;-83
2021/08/11 01:36:53;;;;;;;6.03;4.93;;;16.10;99.90;;;;;;5028181;28;20547;-83
2021/08/11 01:39:34;;;;;;;10.03;4.73;;;16.10;99.90;;;;;;5069193;28;20469;-83
2021/08/11 01:42:05;;;;;;;5.77;5.10;;;16.00;99.90;;;;;;5072110;28;20395;-80
2021/08/11 01:44:36;;;;;;;6.57;4.97;;;15.90;99.90;;;;;;5073222;28;20395;-81
2021/08/11 01:47:05;;;;;;;5.57;4.97;;;16.00;99.90;;;;;;5074527;28;20431;-82
2021/08/11 01:49:35;;;;;;;6.33;5.33;;;16.10;99.90;;;;;;5070242;28;20407;-83
2021/08/11 01:52:02;;;;;;;6.67;5.60;;;16.10;99.90;;;;;;5069549;28;20438;-82
2021/08/11 01:54:29;;;;;;;7.27;5.17;;;16.10;99.90;;;;;;5069632;28;20402;-83
2021/08/11 01:56:56;;;;;;;11.20;5.20;;;16.20;99.90;;;;;;5068955;28;20887;-83
2021/08/11 01:59:21;;;;;;;8.03;5.90;;;16.10;99.90;;;;;;5069314;28;20450;-82
2021/08/11 02:01:48;;;;;;;7.93;5.43;;;16.00;99.90;;;;;;5068920;28;20418;-83
2021/08/11 02:04:15;;;;;;;7.83;5.30;;;16.10;99.90;;;;;;5068679;28;20220;-83
2021/08/11 02:06:42;;;;;;;7.67;5.03;;;16.00;99.90;;;;;;5069375;28;20485;-83
2021/08/11 02:09:10;;;;;;;9.93;6.27;;;15.90;99.90;;;;;;5070136;28;20418;-83
2021/08/11 02:11:38;;;;;;;9.20;6.70;;;16.00;99.90;;;;;;5070739;28;20403;-84
2021/08/11 02:14:05;;;;;;;7.90;5.33;;;15.90;99.90;;;;;;5068414;28;20395;-84
2021/08/11 02:16:30;;;;;;;16.17;6.20;;;15.90;99.90;;;;;;5070495;28;20402;-84
2021/08/11 02:18:57;;;;;;;11.60;6.47;;;16.00;99.90;;;;;;5072145;28;20442;-83
2021/08/11 02:21:23;;;;;;;8.33;5.73;;;15.80;99.90;;;;;;5068241;28;20224;-83
2021/08/11 02:23:49;;;;;;;9.17;5.30;;;15.80;99.90;;;;;;5068350;28;20387;-83
2021/08/11 02:26:31;;;;;;;7.00;5.60;;;15.80;99.90;;;;;;5067270;28;20199;-83
2021/08/11 02:29:06;;;;;;;5.70;5.20;;;15.80;99.90;;;;;;5068489;28;20163;-83
2021/08/11 02:31:44;;;;;;;10.10;5.27;;;15.70;99.90;;;;;;5067995;28;20877;-81
2021/08/11 02:34:20;;;;;;;8.60;5.83;;;15.60;99.90;;;;;;5068031;28;20387;-83
2021/08/11 02:36:53;;;;;;;6.20;5.23;;;15.60;99.90;;;;;;5059637;28;20523;-82
2021/08/11 02:39:25;;;;;;;7.53;5.70;;;15.60;99.90;;;;;;5047514;28;20907;-82
2021/08/11 02:41:57;;;;;;;6.20;5.60;;;15.60;99.90;;;;;;5047764;28;20482;-82
2021/08/11 02:44:27;;;;;;;12.13;5.83;;;15.60;99.90;;;;;;5047010;28;20396;-82
2021/08/11 02:46:56;;;;;;;8.57;6.40;;;15.80;99.90;;;;;;5047688;28;20400;-83
2021/08/11 02:49:27;;;;;;;10.97;5.60;;;15.60;99.90;;;;;;5046518;28;20490;-83
2021/08/11 02:51:57;;;;;;;7.37;5.97;;;15.60;99.90;;;;;;5046410;28;20396;-82
2021/08/11 02:54:24;;;;;;;5.30;4.40;;;15.60;99.90;;;;;;5046925;28;20400;-82
2021/08/11 02:56:50;;;;;;;7.80;6.43;;;15.60;99.90;;;;;;5046294;28;20399;-82
2021/08/11 02:59:15;;;;;;;6.40;5.70;;;15.70;99.90;;;;;;5047801;28;20489;-82
2021/08/11 03:01:42;;;;;;;9.10;6.40;;;15.80;99.90;;;;;;5046950;28;20248;-83
2021/08/11 03:04:08;;;;;;;6.70;5.13;;;15.80;99.90;;;;;;5046402;28;20172;-82
2021/08/11 03:06:34;;;;;;;7.73;5.97;;;15.70;99.90;;;;;;5046274;28;20399;-82
2021/08/11 03:09:01;;;;;;;8.43;6.10;;;15.70;99.90;;;;;;5045919;28;20653;-83
2021/08/11 03:11:28;;;;;;;8.77;5.77;;;15.70;99.90;;;;;;5046016;28;20414;-83
2021/08/11 03:13:55;;;;;;;7.83;5.83;;;15.50;99.90;;;;;;5045829;28;20873;-82
2021/08/11 03:16:21;;;;;;;5.70;4.90;;;15.40;99.90;;;;;;5046220;28;20396;-82
2021/08/11 03:18:48;;;;;;;7.50;6.50;;;15.40;99.90;;;;;;5045998;28;20447;-80
2021/08/11 03:21:14;;;;;;;6.03;5.33;;;15.40;99.90;;;;;;5046046;28;20172;-81
2021/08/11 03:23:39;;;;;;;8.50;5.63;;;15.50;99.90;;;;;;5045125;28;20391;-81
2021/08/11 03:26:05;;;;;;;21.63;6.40;;;15.40;99.90;;;;;;5046172;28;20196;-81
2021/08/11 03:28:31;;;;;;;7.33;6.20;;;15.30;99.90;;;;;;5045885;28;20210;-83
2021/08/11 03:30:56;;;;;;;6.00;5.07;;;15.40;99.90;;;;;;5046216;28;20165;-84
2021/08/11 03:33:22;;;;;;;5.97;5.37;;;15.50;99.90;;;;;;5046186;28;20322;-82
2021/08/11 03:35:47;;;;;;;6.83;5.13;;;15.50;99.90;;;;;;5046202;28;20173;-82
2021/08/11 03:38:13;;;;;;;6.43;5.77;;;15.40;99.90;;;;;;5044402;28;20259;-82
2021/08/11 03:40:38;;;;;;;7.90;5.50;;;15.50;99.90;;;;;;5045839;28;20580;-83
2021/08/11 03:43:04;;;;;;;6.87;6.13;;;15.40;99.90;;;;;;5045769;28;20214;-82
2021/08/11 03:45:29;;;;;;;11.30;6.07;;;15.40;99.90;;;;;;5028242;28;20168;-83
2021/08/11 03:47:55;;;;;;;9.77;6.73;;;15.40;99.90;;;;;;5045531;28;20219;-82
2021/08/11 03:50:24;;;;;;;7.43;6.17;;;15.40;99.90;;;;;;5028617;28;20224;-82
2021/08/11 03:52:50;;;;;;;7.40;5.93;;;15.40;99.90;;;;;;5045346;28;20433;-82
2021/08/11 03:55:16;;;;;;;11.23;5.30;;;15.40;99.90;;;;;;5046753;28;20399;-83
2021/08/11 03:57:41;;;;;;;7.53;5.80;;;15.40;99.90;;;;;;5046945;28;20298;-82
2021/08/11 04:00:07;;;;;;;8.23;6.50;;;15.50;99.90;;;;;;5028277;28;20196;-82
2021/08/11 04:02:33;;;;;;;6.70;5.43;;;15.50;99.90;;;;;;5045326;28;20192;-80
2021/08/11 04:05:04;;;;;;;8.67;5.30;;;15.40;99.90;;;;;;5045401;28;20392;-82
2021/08/11 04:07:29;;;;;;;10.60;5.67;;;15.30;99.90;;;;;;5029462;28;20236;-82
2021/08/11 04:09:55;;;;;;;10.60;5.10;;;15.40;99.90;;;;;;5045620;28;20439;-83
2021/08/11 04:12:20;;;;;;;6.07;5.47;;;15.50;99.90;;;;;;5047835;28;20157;-80
2021/08/11 04:14:46;;;;;;;8.33;6.00;;;15.40;99.90;;;;;;5051446;28;20160;-80
2021/08/11 04:17:12;;;;;;;7.60;5.60;;;15.30;99.90;;;;;;5048722;28;20222;-82
2021/08/11 04:19:37;;;;;;;7.43;6.20;;;15.40;99.90;;;;;;5045267;28;20211;-83
2021/08/11 04:22:03;;;;;;;7.10;5.27;;;15.40;99.90;;;;;;5028985;28;20399;-80
2021/08/11 04:24:29;;;;;;;7.23;5.00;;;15.40;99.90;;;;;;5049529;28;20161;-81
2021/08/11 04:26:54;;;;;;;11.40;6.60;;;15.60;99.90;;;;;;5009592;28;20199;-82
2021/08/11 04:29:20;;;;;;;12.77;8.53;;;15.50;99.90;;;;;;5042756;28;20165;-83
2021/08/11 04:31:45;;;;;;;7.90;5.80;;;15.50;99.90;;;;;;5044443;28;20172;-83
2021/08/11 04:34:11;;;;;;;9.27;5.53;;;15.60;99.90;;;;;;5044630;28;20176;-82
2021/08/11 04:36:36;;;;;;;6.00;5.50;;;15.50;99.90;;;;;;5043876;28;20227;-83
2021/08/11 04:39:02;;;;;;;7.83;5.30;;;15.40;99.90;;;;;;5044216;28;20188;-83
2021/08/11 04:41:28;;;;;;;7.53;5.73;;;15.40;99.90;;;;;;5044592;28;20189;-83
2021/08/11 04:43:53;;;;;;;5.70;5.10;;;15.50;99.90;;;;;;5045422;28;20396;-81
2021/08/11 04:46:19;;;;;;;5.80;5.20;;;15.40;99.90;;;;;;5043946;28;20625;-81
2021/08/11 04:48:44;;;;;;;6.60;5.43;;;15.40;99.90;;;;;;5045958;28;20160;-81
2021/08/11 04:51:10;;;;;;;7.60;4.80;;;15.30;99.90;;;;;;5048793;28;20171;-82
2021/08/11 04:53:35;;;;;;;7.57;6.43;;;15.30;99.90;;;;;;5030445;28;20165;-82
2021/08/11 04:56:01;;;;;;;8.50;6.27;;;15.50;99.90;;;;;;5047967;28;20160;-83
2021/08/11 04:58:26;;;;;;;6.20;5.70;;;15.60;99.90;;;;;;5048348;28;20258;-83
2021/08/11 05:00:52;;;;;;;11.90;5.83;;;15.70;99.90;;;;;;5047927;28;20161;-82
2021/08/11 05:03:17;;;;;;;9.73;5.97;;;15.70;99.90;;;;;;5030685;28;20161;-83
2021/08/11 05:05:43;;;;;;;6.30;5.40;;;16.00;99.90;;;;;;5030131;28;20171;-83
2021/08/11 05:08:09;;;;;;;7.20;5.50;;;16.10;99.90;;;;;;5058120;28;20197;-80
2021/08/11 05:10:35;;;;;;;5.90;5.30;;;15.90;99.90;;;;;;5057960;28;20395;-83
2021/08/11 05:13:00;;;;;;;7.67;5.23;;;15.90;99.90;;;;;;5033449;28;20172;-83
2021/08/11 05:15:26;;;;;;;9.60;5.47;;;15.90;99.90;;;;;;5050852;28;20256;-83
2021/08/11 05:17:51;;;;;;;6.60;5.80;;;15.80;99.90;;;;;;5015652;28;20164;-83
2021/08/11 05:20:19;;;;;;;7.60;4.93;;;15.80;99.90;;;;;;5049676;28;20200;-82
2021/08/11 05:22:45;;;;;;;10.33;5.90;;;16.00;99.90;;;;;;5049690;28;20543;-83
2021/08/11 05:25:11;;;;;;;19.33;6.47;;;16.20;99.90;;;;;;5049610;28;20455;-83
2021/08/11 05:27:36;;;;;;;8.30;5.80;;;16.40;99.90;;;;;;5049561;28;20770;-83
2021/08/11 05:30:07;;;;;;;6.90;5.60;;;16.50;99.90;;;;;;5048904;28;20571;-83
2021/08/11 05:32:33;;;;;;;9.30;5.73;;;16.40;99.90;;;;;;5048519;28;20200;-82
2021/08/11 05:34:58;;;;;;;7.00;5.50;;;16.50;99.90;;;;;;5048611;28;20423;-82
2021/08/11 05:37:24;;;;;;;7.10;5.60;;;16.60;99.90;;;;;;5048509;28;20274;-84
2021/08/11 05:40:11;;;;;;;8.53;5.20;;;16.60;99.90;;;;;;5047904;28;20197;-85
2021/08/11 05:42:37;;;;;;;6.50;5.50;;;16.80;99.90;;;;;;4970923;28;21016;-83
2021/08/11 05:45:03;;;;;;;7.03;5.40;;;17.00;99.90;;;;;;4985322;28;20521;-83
2021/08/11 05:47:29;;;;;;;8.00;5.73;;;16.70;99.90;;;;;;4986400;28;20320;-83
2021/08/11 05:49:54;;;;;;;6.30;5.70;;;16.80;99.90;;;;;;4986432;28;20982;-82
2021/08/11 05:52:20;;;;;;;6.70;6.03;;;16.80;99.90;;;;;;4986632;28;20173;-81
2021/08/11 05:54:46;;;;;;;9.33;6.57;;;16.70;99.90;;;;;;4986161;28;20178;-82
2021/08/11 05:57:11;;;;;;;9.50;6.00;;;16.60;99.90;;;;;;4986666;28;20227;-83
2021/08/11 05:59:37;;;;;;;7.63;6.50;;;16.80;99.90;;;;;;4985718;28;20453;-81
2021/08/11 06:02:03;;;;;;;8.93;5.73;;;16.90;99.90;;;;;;4986611;28;20178;-83
2021/08/11 06:04:29;;;;;;;6.07;5.57;;;17.20;99.90;;;;;;4986222;28;20198;-82
2021/08/11 06:06:54;;;;;;;6.80;6.10;;;17.10;99.90;;;;;;4986462;28;20398;-82
2021/08/11 06:09:20;;;;;;;6.23;5.63;;;17.20;99.90;;;;;;4970405;28;20198;-81
2021/08/11 06:11:46;;;;;;;7.93;5.53;;;17.10;99.90;;;;;;4986728;28;20199;-82
2021/08/11 06:14:11;;;;;;;10.90;6.13;;;17.30;99.90;;;;;;4986570;28;20175;-83
2021/08/11 06:16:37;;;;;;;7.27;6.57;;;17.50;99.90;;;;;;4986095;28;20178;-84
2021/08/11 06:19:03;;;;;;;8.20;6.70;;;17.80;99.90;;;;;;4986151;28;20212;-83
2021/08/11 06:21:29;;;;;;;7.13;5.80;;;17.70;99.90;;;;;;4987752;28;20167;-83
2021/08/11 06:23:55;;;;;;;7.33;5.90;;;17.80;99.90;;;;;;4986775;28;20505;-81
2021/08/11 06:26:21;;;;;;;6.77;5.47;;;18.00;99.90;;;;;;5014582;28;20195;-83
2021/08/11 06:28:47;;;;;;;6.80;5.90;;;18.10;99.90;;;;;;5040712;28;20184;-83
2021/08/11 06:31:16;;;;;;;7.70;5.73;;;18.00;99.90;;;;;;5029123;28;20472;-82
2021/08/11 06:33:42;;;;;;;6.17;5.27;;;18.20;99.90;;;;;;5027783;28;20412;-83
2021/08/11 06:36:07;;;;;;;9.20;6.10;;;18.10;99.90;;;;;;5026316;28;20435;-82
2021/08/11 06:38:33;;;;;;;7.17;6.40;;;18.30;99.90;;;;;;5046857;28;20231;-83
2021/08/11 06:40:58;;;;;;;5.00;4.50;;;18.30;99.90;;;;;;5048105;28;20169;-83
2021/08/11 06:43:24;;;;;;;7.87;6.17;;;18.30;99.90;;;;;;5027898;28;20166;-83
2021/08/11 06:45:49;;;;;;;6.13;4.70;;;18.30;99.90;;;;;;5046577;28;20267;-83
2021/08/11 06:48:15;;;;;;;6.93;5.17;;;18.20;99.90;;;;;;5042083;28;20171;-83
2021/08/11 06:50:40;;;;;;;6.03;5.00;;;18.60;99.90;;;;;;5046281;28;20188;-83
2021/08/11 06:53:06;;;;;;;7.53;5.30;;;18.70;99.90;;;;;;5047110;28;20199;-83
2021/08/11 06:55:31;;;;;;;5.77;5.20;;;18.80;99.90;;;;;;5045045;28;20556;-83
2021/08/11 06:57:57;;;;;;;8.70;5.37;;;19.00;99.90;;;;;;5002737;28;20165;-83
2021/08/11 07:00:22;;;;;;;6.03;5.33;;;19.10;99.90;;;;;;5036007;28;20202;-83
2021/08/11 07:02:48;;;;;;;5.73;4.47;;;19.20;99.90;;;;;;5038785;28;20179;-83
2021/08/11 07:05:14;;;;;;;10.37;6.27;;;19.20;99.90;;;;;;5039537;28;20196;-83
2021/08/11 07:07:40;;;;;;;11.20;6.70;;;19.20;99.90;;;;;;5038895;28;20268;-83
2021/08/11 07:10:09;;;;;;;6.03;5.03;;;19.20;99.90;;;;;;5033462;28;20264;-83
2021/08/11 07:12:34;;;;;;;9.63;5.20;;;19.50;99.90;;;;;;5023238;28;20187;-82
2021/08/11 07:15:00;;;;;;;7.30;4.13;;;19.50;99.90;;;;;;5030218;28;20432;-83
2021/08/11 07:17:25;;;;;;;9.70;5.27;;;19.60;99.90;;;;;;5036141;28;20170;-83
2021/08/11 07:19:51;;;;;;;4.20;3.63;;;19.80;99.90;;;;;;5034980;28;20204;-82
2021/08/11 07:22:16;;;;;;;6.83;4.93;;;19.70;99.90;;;;;;5036906;28;20275;-82
2021/08/11 07:24:42;;;;;;;6.50;4.70;;;19.80;99.90;;;;;;5028280;28;20179;-82
2021/08/11 07:27:08;;;;;;;10.53;5.53;;;20.00;99.90;;;;;;5032802;28;20177;-83
2021/08/11 07:29:33;;;;;;;6.10;4.53;;;20.10;99.90;;;;;;5004355;28;20654;-83
2021/08/11 07:31:59;;;;;;;5.50;4.80;;;20.30;99.90;;;;;;5021170;28;20226;-84
2021/08/11 07:34:24;;;;;;;5.83;4.63;;;20.30;99.90;;;;;;5029367;28;20315;-83
2021/08/11 07:36:50;;;;;;;5.10;4.60;;;20.30;99.90;;;;;;5020158;28;20229;-83
2021/08/11 07:39:15;;;;;;;7.93;3.97;;;20.10;99.90;;;;;;5024988;28;20201;-83
2021/08/11 07:41:42;;;;;;;4.50;4.03;;;20.00;99.90;;;;;;5005277;28;20180;-83
2021/08/11 07:44:08;;;;;;;4.73;4.33;;;20.30;99.90;;;;;;5031853;28;20427;-83
2021/08/11 07:46:33;;;;;;;6.30;5.10;;;20.50;99.90;;;;;;5027533;28;20259;-83
2021/08/11 07:49:00;;;;;;;6.63;5.30;;;20.70;99.90;;;;;;5025385;28;20279;-82
2021/08/11 07:51:26;;;;;;;4.90;4.50;;;20.80;99.90;;;;;;5034274;28;20173;-83
2021/08/11 07:53:52;;;;;;;4.93;4.50;;;20.70;99.90;;;;;;5020072;28;20427;-83
2021/08/11 07:56:17;;;;;;;5.93;4.67;;;20.70;99.90;;;;;;5039149;28;20422;-83
2021/08/11 07:58:43;;;;;;;4.43;4.03;;;20.80;99.90;;;;;;5032527;28;20188;-83
2021/08/11 08:01:12;;;;;;;4.80;4.40;;;20.70;99.90;;;;;;5040969;28;20263;-83
2021/08/11 08:03:37;;;;;;;6.10;4.80;;;20.80;99.90;;;;;;5018322;28;20250;-83
2021/08/11 08:06:03;;;;;;;12.20;4.50;;;20.70;99.90;;;;;;5037333;28;20869;-83
2021/08/11 08:08:30;;;;;;;7.37;3.87;;;20.60;99.90;;;;;;5034264;28;20556;-83
2021/08/11 08:10:55;;;;;;;6.23;4.07;;;20.90;99.90;;;;;;5028941;28;20184;-83
2021/08/11 08:13:21;;;;;;;6.00;4.57;;;20.70;99.90;;;;;;5033961;28;20407;-82
2021/08/11 08:15:48;;;;;;;5.67;3.97;;;20.90;99.90;;;;;;5034008;28;20172;-82
2021/08/11 08:18:21;;;;;;;5.03;4.27;;;20.80;99.90;;;;;;5023481;28;20177;-81
2021/08/11 08:20:48;;;;;;;5.80;4.30;;;21.20;99.90;;;;;;5049322;28;20718;-83
2021/08/11 08:23:13;;;;;;;4.83;4.43;;;21.30;99.90;;;;;;5033527;28;20419;-84
2021/08/11 08:25:39;;;;;;;9.87;4.80;;;21.70;99.90;;;;;;5034893;28;20909;-82
2021/08/11 08:28:04;;;;;;;6.20;3.67;;;21.40;99.90;;;;;;5017772;28;20183;-83
2021/08/11 08:30:30;;;;;;;4.80;4.17;;;21.70;99.90;;;;;;5041085;28;20177;-83
2021/08/11 08:32:56;;;;;;;5.27;3.87;;;22.00;99.90;;;;;;5023013;28;20185;-82
2021/08/11 08:35:21;;;;;;;7.60;3.37;;;22.30;99.90;;;;;;5039596;28;20173;-82
2021/08/11 08:37:47;;;;;;;5.57;4.67;;;22.40;99.90;;;;;;5040684;28;20238;-82
2021/08/11 08:40:14;;;;;;;5.07;3.87;;;22.20;99.90;;;;;;5029515;28;20215;-83
2021/08/11 08:42:41;;;;;;;4.20;3.80;;;22.40;99.90;;;;;;5032821;28;20210;-83
2021/08/11 08:45:09;;;;;;;4.20;3.80;;;22.60;99.90;;;;;;5003095;28;20458;-83
2021/08/11 08:47:37;;;;;;;4.53;3.93;;;22.70;99.90;;;;;;5027302;28;20442;-83
2021/08/11 08:50:07;;;;;;;5.90;4.37;;;22.60;99.90;;;;;;5039619;28;20427;-84
2021/08/11 08:52:33;;;;;;;4.00;3.50;;;22.50;99.90;;;;;;5039344;28;20415;-83
2021/08/11 08:55:00;;;;;;;6.17;4.03;;;22.60;99.90;;;;;;5037805;28;20427;-81
2021/08/11 08:57:26;;;;;;;5.10;3.50;;;22.20;99.90;;;;;;5032590;28;20419;-83
2021/08/11 08:59:52;;;;;;;7.57;4.20;;;22.10;99.90;;;;;;5036975;28;20794;-83
2021/08/11 09:02:17;;;;;;;4.73;3.83;;;22.10;99.90;;;;;;5035050;28;20408;-83
2021/08/11 09:04:43;;;;;;;5.73;3.83;;;22.20;99.90;;;;;;5027962;28;20222;-83
2021/08/11 09:07:14;;;;;;;3.63;3.23;;;22.30;99.90;;;;;;5033962;28;20176;-83
2021/08/11 09:09:40;;;;;;;4.53;3.87;;;22.10;99.90;;;;;;5032416;28;20261;-83
2021/08/11 09:12:15;;;;;;;3.97;3.60;;;22.50;99.90;;;;;;5013342;28;20436;-83
2021/08/11 09:14:49;;;;;;;3.90;3.60;;;22.50;99.90;;;;;;5019188;28;20244;-83
2021/08/11 09:17:34;;;;;;;4.10;3.30;;;22.80;99.90;;;;;;5036968;28;20407;-83
2021/08/11 09:20:01;;;;;;;3.47;3.17;;;22.80;99.90;;;;;;5036864;28;20505;-83
2021/08/11 09:22:27;;;;;;;3.90;3.50;;;22.90;99.90;;;;;;5041301;28;20476;-83
2021/08/11 09:25:06;;;;;;;4.10;3.70;;;23.10;99.90;;;;;;5038000;28;20499;-83
2021/08/11 09:27:38;;;;;;;4.20;3.80;;;23.00;99.90;;;;;;5038574;28;20689;-83
2021/08/11 09:30:11;;;;;;;3.70;3.30;;;22.80;99.90;;;;;;5043674;28;20411;-83
2021/08/11 09:33:05;;;;;;;4.10;3.40;;;23.10;99.90;;;;;;5049211;28;20434;-83
2021/08/11 09:35:38;;;;;;;5.17;4.60;;;23.60;99.90;;;;;;5031567;28;20419;-83
2021/08/11 09:38:07;;;;;;;4.23;3.83;;;23.80;99.90;;;;;;5053935;28;20463;-81
2021/08/11 09:40:35;;;;;;;4.43;4.03;;;23.80;99.90;;;;;;5053916;28;20779;-81
2021/08/11 09:43:06;;;;;;;3.90;3.60;;;23.80;99.90;;;;;;5050359;28;20425;-83
2021/08/11 09:45:48;;;;;;;3.23;2.93;;;23.80;99.90;;;;;;5039899;28;20444;-83
2021/08/11 09:48:15;;;;;;;3.80;3.10;;;23.70;99.90;;;;;;5052377;28;20575;-82
2021/08/11 09:50:45;;;;;;;6.90;3.37;;;23.80;99.90;;;;;;5042266;28;20849;-83
2021/08/11 09:53:14;;;;;;;4.07;3.13;;;24.00;99.90;;;;;;5038305;28;20875;-82
2021/08/11 09:56:00;;;;;;;4.00;2.80;;;24.10;99.90;;;;;;4988012;28;20480;-84
2021/08/11 09:58:25;;;;;;;3.20;2.93;;;24.50;99.90;;;;;;5024364;28;20473;-82
2021/08/11 10:00:52;;;;;;;3.60;3.30;;;24.70;99.90;;;;;;5020492;28;20896;-83
2021/08/11 10:03:17;;;;;;;4.37;3.00;;;24.40;99.90;;;;;;5036970;28;20188;-83
2021/08/11 10:05:43;;;;;;;4.07;3.40;;;24.10;99.90;;;;;;5021129;28;20530;-83
2021/08/11 10:08:09;;;;;;;3.50;3.20;;;24.40;99.90;;;;;;5039008;28;20201;-82
2021/08/11 10:10:46;;;;;;;6.30;4.03;;;24.60;99.90;;;;;;5039616;28;20176;-82
2021/08/11 10:13:15;;;;;;;3.90;3.60;;;25.00;99.90;;;;;;5022059;28;20202;-83
2021/08/11 10:15:42;;;;;;;3.57;3.27;;;24.90;99.90;;;;;;5021265;28;20426;-83
2021/08/11 10:18:09;;;;;;;3.60;2.90;;;25.00;99.90;;;;;;5021492;28;20419;-83
2021/08/11 10:20:35;;;;;;;3.60;3.30;;;25.10;99.90;;;;;;5039983;28;20469;-83
2021/08/11 10:23:01;;;;;;;3.00;2.70;;;25.00;99.90;;;;;;5040192;28;20416;-83
2021/08/11 10:25:26;;;;;;;4.43;2.90;;;25.20;99.90;;;;;;5039933;28;20251;-83
2021/08/11 10:27:52;;;;;;;4.10;3.13;;;25.30;99.90;;;;;;5039659;28;20156;-83
2021/08/11 10:30:18;;;;;;;4.13;3.47;;;24.90;99.90;;;;;;5031243;28;20183;-82
2021/08/11 10:32:45;;;;;;;3.40;3.03;;;24.40;99.90;;;;;;5031411;28;20189;-82
2021/08/11 10:35:11;;;;;;;7.00;4.20;;;24.40;99.90;;;;;;5023135;28;20262;-83
2021/08/11 10:37:39;;;;;;;3.90;3.27;;;24.50;99.90;;;;;;5036930;28;20577;-83
2021/08/11 10:40:06;;;;;;;5.20;3.20;;;24.50;99.90;;;;;;5059581;28;20465;-83
2021/08/11 10:42:33;;;;;;;3.30;3.00;;;25.40;99.90;;;;;;5060732;28;20480;-83
2021/08/11 10:44:59;;;;;;;4.90;3.50;;;25.50;99.90;;;;;;5062164;28;20468;-84
2021/08/11 10:47:30;;;;;;;4.60;2.80;;;25.50;99.90;;;;;;5022803;28;20424;-82
2021/08/11 10:50:02;;;;;;;3.00;2.80;;;25.30;99.90;;;;;;5037414;28;20510;-83
2021/08/11 10:52:29;;;;;;;2.90;2.47;;;25.20;99.90;;;;;;5039726;28;20428;-82
2021/08/11 10:55:05;;;;;;;3.00;2.70;;;24.70;99.90;;;;;;5002796;28;20442;-82
2021/08/11 10:57:43;;;;;;;7.07;2.80;;;24.70;99.90;;;;;;5036930;28;20661;-83
2021/08/11 11:00:30;;;;;;;2.60;2.40;;;24.80;99.90;;;;;;5015291;28;20553;-83
2021/08/11 11:02:55;;;;;;;3.07;2.77;;;24.90;99.90;;;;;;5038199;28;20439;-83
2021/08/11 11:05:55;;;;;;;5.17;3.30;;;24.90;99.90;;;;;;5037668;28;20814;-83
2021/08/11 11:08:36;;;;;;;3.33;2.73;;;24.80;99.90;;;;;;5020484;28;20238;-83
2021/08/11 11:11:32;;;;;;;2.20;2.00;;;25.00;99.90;;;;;;5040311;28;20427;-84
2021/08/11 11:13:58;;;;;;;2.73;2.53;;;25.10;99.90;;;;;;5024109;28;20502;-83
2021/08/11 11:16:58;;;;;;;5.23;2.50;;;25.10;99.90;;;;;;5040640;28;20446;-83
2021/08/11 11:19:24;;;;;;;2.73;2.53;;;25.10;99.90;;;;;;5059128;28;20218;-83
2021/08/11 11:21:49;;;;;;;2.47;2.23;;;25.10;99.90;;;;;;5047225;28;20451;-83
2021/08/11 11:24:39;;;;;;;3.97;2.60;;;25.30;99.90;;;;;;5058921;28;20223;-83
2021/08/11 11:27:39;;;;;;;2.67;2.47;;;24.90;99.90;;;;;;5043957;28;20168;-83
2021/08/11 11:30:06;;;;;;;2.90;2.70;;;25.10;99.90;;;;;;5056235;28;20422;-83
2021/08/11 11:32:32;;;;;;;4.63;2.40;;;25.70;99.90;;;;;;5053285;28;20437;-83
2021/08/11 11:35:27;;;;;;;7.70;2.90;;;26.60;99.90;;;;;;5059485;28;20817;-83
2021/08/11 11:38:07;;;;;;;3.33;2.70;;;26.50;99.90;;;;;;5036345;28;20489;-83
2021/08/11 11:40:53;;;;;;;2.30;2.10;;;26.10;99.90;;;;;;5022907;28;20745;-84
2021/08/11 11:43:30;;;;;;;3.30;2.80;;;26.40;99.90;;;;;;5037164;28;20427;-84
2021/08/11 11:45:57;;;;;;;3.27;2.97;;;26.50;99.90;;;;;;5039074;28;20423;-83
2021/08/11 11:48:23;;;;;;;3.80;3.03;;;26.40;99.90;;;;;;5040787;28;20418;-83
2021/08/11 11:50:51;;;;;;;2.80;2.50;;;26.80;99.90;;;;;;5042009;28;20406;-83
2021/08/11 11:53:27;;;;;;;2.60;2.40;;;27.50;99.90;;;;;;5043049;28;20415;-84
2021/08/11 11:55:53;;;;;;;3.47;2.80;;;28.40;99.90;;;;;;5019824;28;20452;-84
2021/08/11 11:58:22;;;;;;;3.10;2.60;;;28.80;99.90;;;;;;5041690;28;20403;-84
2021/08/11 12:00:58;;;;;;;3.60;2.43;;;29.40;99.90;;;;;;5017528;28;20402;-82
2021/08/11 12:03:33;;;;;;;3.77;3.00;;;29.00;99.90;;;;;;5041805;28;20383;-83
2021/08/11 12:05:58;;;;;;;2.60;2.40;;;29.20;99.90;;;;;;5023986;28;20915;-84
2021/08/11 12:08:25;;;;;;;2.53;2.33;;;29.70;99.90;;;;;;5021308;28;20462;-82
2021/08/11 12:11:00;;;;;;;2.83;2.63;;;29.60;99.90;;;;;;5020613;28;20198;-84
2021/08/11 12:13:26;;;;;;;3.28;2.75;;;29.80;99.90;;;;;;5026644;28;20184;-84
2021/08/11 12:15:53;;;;;;;3.45;2.92;;;30.20;99.90;;;;;;5017862;28;20169;-84
2021/08/11 12:18:22;;;;;;;3.08;2.28;;;30.70;99.90;;;;;;5014509;28;20169;-84
2021/08/11 12:20:49;;;;;;;3.65;3.35;;;30.70;99.90;;;;;;5027236;28;20175;-83
2021/08/11 12:23:26;;;;;;;2.85;2.33;;;31.30;98.70;;;;;;5023404;28;20422;-84
2021/08/11 12:25:54;;;;;;;3.45;3.15;;;31.70;97.60;;;;;;5036644;28;20168;-84
2021/08/11 12:28:22;;;;;;;3.17;2.83;;;30.90;97.40;;;;;;5029837;28;20199;-83
2021/08/11 12:30:54;;;;;;;2.95;2.75;;;29.10;99.60;;;;;;5024827;28;20290;-84
2021/08/11 12:33:30;;;;;;;2.85;2.53;;;29.50;99.90;;;;;;5015111;28;20189;-84
2021/08/11 12:35:57;;;;;;;3.08;2.53;;;29.20;99.90;;;;;;4982107;28;20267;-84
2021/08/11 12:38:28;;;;;;;3.10;2.80;;;29.00;99.90;;;;;;5019319;28;20193;-84
2021/08/11 12:41:19;;;;;;;2.83;2.60;;;28.60;99.90;;;;;;5021060;28;20316;-83
2021/08/11 12:43:47;;;;;;;4.37;2.77;;;28.00;99.90;;;;;;4989144;28;20391;-83
2021/08/11 12:46:17;;;;;;;2.30;2.10;;;27.60;99.90;;;;;;4987632;28;20431;-82
2021/08/11 12:48:43;;;;;;;2.60;2.40;;;27.60;99.90;;;;;;4967079;28;20408;-83
2021/08/11 12:51:27;;;;;;;5.40;2.80;;;28.20;99.90;;;;;;4995635;28;20815;-83
2021/08/11 12:54:09;;;;;;;3.30;3.00;;;28.40;99.90;;;;;;5003697;28;20892;-84